• Join FlightAware (Why Join?)
  • Login
  • US Flag 
09:02PM EDT


 

Airport Tracker/Info


-or-


 

Live Flight TrackerFlight Track Log ✈ DAL268 ✈ 27-Oct-2013 ✈ KSFO - KJFK

Flight Track Log - Related Links

Times and Time Zones

All times are in EDT time to prevent confusion due to time zone crossing. See the DAL268 flight status page for this flight to view local times or setup timezone preferences in your user account.

Time Position Orientation Groundspeed Altitude Reporting Facility
EDT Latitude Longitude Course Direction KTS MPH feet Rate Location/Type
02:23PM 37.6322 -122.3640 31° Northeast 169 194 700  Level FlightAware ADS-B
02:23PM 37.6387 -122.3570 40° Northeast 179 206 1,200 2,520 Climbing FlightAware ADS-B
02:23PM 37.6452 -122.3490 44° Northeast 185 213 1,600 1,620 Climbing FlightAware ADS-B
02:24PM 37.6519 -122.3400 47° Northeast 203 234 1,800 1,380 Climbing FlightAware ADS-B
02:24PM 37.6617 -122.3260 49° Northeast 222 255 2,200 2,040 Climbing FlightAware ADS-B
02:24PM 37.6687 -122.3150 51° Northeast 233 268 2,700 2,280 Climbing FlightAware ADS-B
02:24PM 37.6789 -122.2980 53° Northeast 248 285 3,200 1,800 Climbing FlightAware ADS-B
02:24PM 37.6903 -122.2790 53° Northeast 273 314 3,600 2,340 Climbing FlightAware ADS-B
02:25PM 37.7008 -122.2630 50° Northeast 280 322 4,300 3,480 Climbing FlightAware ADS-B
02:25PM 37.7154 -122.2410 50° Northeast 277 319 5,400 3,420 Climbing FlightAware ADS-B
02:25PM 37.7401 -122.2050 49° Northeast 284 327 7,000 3,120 Climbing FlightAware ADS-B
02:26PM 37.7536 -122.1850 50° Northeast 291 335 7,700 2,880 Climbing FlightAware ADS-B
02:26PM 37.7672 -122.1650 49° Northeast 294 338 8,500 3,120 Climbing FlightAware ADS-B
02:26PM 37.7838 -122.1400 50° Northeast 298 343 9,500 2,640 Climbing FlightAware ADS-B
02:27PM 37.8119 -122.1000 48° Northeast 315 362 10,700 1,740 Climbing FlightAware ADS-B
02:27PM 37.8444 -122.0520 49° Northeast 357 411 11,300 1,140 Climbing FlightAware ADS-B
02:28PM 37.8608 -122.0280 49° Northeast 375 432 11,600 1,320 Climbing FlightAware ADS-B
02:28PM 37.8681 -122.0150 55° Northeast 381 438 11,800 1,740 Climbing FlightAware ADS-B
02:28PM 37.8770 -121.9960 59° Northeast 385 443 12,100 2,100 Climbing FlightAware ADS-B
02:28PM 37.8798 -121.9880 66° East 387 445 12,300 2,400 Climbing FlightAware ADS-B
02:28PM 37.8840 -121.9750 68° East 389 448 12,500 2,580 Climbing FlightAware ADS-B
02:29PM 37.8984 -121.9070 75° East 395 455 13,900 2,460 Climbing FlightAware ADS-B
02:29PM 37.9203 -121.7980 76° East 397 457 15,800 2,280 Climbing FlightAware ADS-B
02:30PM 37.9379 -121.7090 76° East 419 482 17,200 2,160 Climbing FlightAware ADS-B
02:30PM 37.9524 -121.6350 76° East 428 493 18,300 2,100 Climbing FlightAware ADS-B
02:31PM 37.9677 -121.5570 76° East 435 501 19,400 1,980 Climbing FlightAware ADS-B
02:32PM 37.9826 -121.4810 76° East 444 511 20,400 1,860 Climbing FlightAware ADS-B
02:32PM 37.9978 -121.4020 76° East 450 518 21,300 1,860 Climbing FlightAware ADS-B
02:33PM 38.0142 -121.3180 76° East 457 526 22,400 1,860 Climbing FlightAware ADS-B
02:34PM 38.0512 -121.1260 76° East 461 531 24,600 1,800 Climbing FlightAware ADS-B
02:35PM 38.1030 -120.8880 74° East 468 539 27,300 1,800 Climbing FlightAware
02:36PM 38.1330 -120.7620 73° East 463 533 28,800 1,740 Climbing FlightAware
02:37PM 38.1740 -120.5920 73° East 457 526 30,700 1,680 Climbing FlightAware
02:38PM 38.1890 -120.5270 74° East 456 525 31,400 1,560 Climbing FlightAware
02:38PM 38.2140 -120.4240 73° East 453 521 32,400 1,320 Climbing FlightAware
02:39PM 38.2360 -120.3320 73° East 455 524 33,100 1,200 Climbing FlightAware
02:39PM 38.2550 -120.2500 74° East 454 522 33,800 1,380 Climbing FlightAware
02:40PM 38.2720 -120.1766 74° East 451 519 34,700 1,260 Climbing FlightAware ADS-B (KAHC)
02:41PM 38.3004 -120.0553 73° East 454 522 35,400 840 Climbing FlightAware ADS-B (KAHC)
02:42PM 38.3350 -119.9070 73° East 461 531 36,100 660 Climbing FlightAware
02:42PM 38.3600 -119.8000 73° East 467 537 36,500 660 Climbing FlightAware
02:43PM 38.3887 -119.6735 74° East 471 542 37,100 660 Climbing FlightAware ADS-B (KAHC)
02:44PM 38.4163 -119.5532 74° East 476 548 37,600 600 Climbing FlightAware ADS-B (KAHC)
02:45PM 38.4500 -119.4040 74° East 478 550 38,100 540 Climbing FlightAware
02:46PM 38.4787 -119.2777 74° East 481 554 38,600 600 Climbing FlightAware ADS-B (KAHC)
02:46PM 38.5010 -119.1695 75° East 481 554 39,000 300 Climbing FlightAware ADS-B (KAHC)
02:47PM 38.5124 -119.0830 80° East 483 556 39,000  Level FlightAware ADS-B (KAHC)
02:47PM 38.5237 -118.9719 83° East 484 557 39,000  Level FlightAware ADS-B (KAHC)
02:48PM 38.5330 -118.8776 83° East 484 557 39,000  Level FlightAware ADS-B (KAHC)
02:49PM 38.5570 -118.6330 83° East 480 552 39,000  Level FlightAware
02:50PM 38.5640 -118.5580 83° East 479 551 39,000  Level FlightAware
02:51PM 38.5750 -118.4430 83° East 480 552 39,000  Level FlightAware
02:51PM 38.5850 -118.3400 83° East 479 551 39,000  Level FlightAware
02:52PM 38.6050 -118.1280 83° East 477 549 39,000  Level FlightAware
02:53PM 38.6140 -118.0310 83° East 477 549 39,000  Level FlightAware
02:54PM 38.6220 -117.9440 83° East 477 549 39,000  Level FlightAware
02:54PM 38.6300 -117.8630 83° East 477 549 39,000  Level FlightAware
02:55PM 38.6410 -117.7510 83° East 477 549 39,000  Level FlightAware
02:55PM 38.6460 -117.6940 84° East 477 549 39,000  Level FlightAware
02:56PM 38.6570 -117.5790 83° East 477 549 39,000  Level FlightAware
02:57PM 38.6660 -117.4910 83° East 477 549 39,000  Level FlightAware
02:57PM 38.6740 -117.4030 83° East 477 549 39,000  Level FlightAware
02:58PM 38.6820 -117.3170 83° East 477 549 39,000  Level FlightAware
02:59PM 38.6930 -117.2020 83° East 477 549 39,000  Level FlightAware
03:00PM 38.7400 -116.8900 79° East 480 552 39,000  Level FlightAware
03:01PM 38.7590 -116.7470 80° East 480 552 39,000  Level FlightAware
03:02PM 38.7710 -116.6580 80° East 480 552 39,000  Level FlightAware
03:02PM 38.7880 -116.5370 80° East 480 552 39,000  Level FlightAware
03:03PM 38.8000 -116.4510 80° East 480 552 39,000  Level FlightAware
03:04PM 38.8200 -116.3050 80° East 480 552 39,000  Level FlightAware
03:05PM 38.8320 -116.2190 80° East 480 552 39,000  Level FlightAware
03:05PM 38.8430 -116.1360 80° East 480 552 39,000  Level FlightAware
03:06PM 38.8550 -116.0500 80° East 480 552 39,000  Level FlightAware
03:06PM 38.8670 -115.9620 80° East 480 552 39,000  Level FlightAware
03:07PM 38.8790 -115.8760 80° East 480 552 39,000  Level FlightAware
03:08PM 38.8990 -115.7300 80° East 480 552 39,000  Level FlightAware
03:09PM 38.9110 -115.6440 80° East 480 552 39,000  Level FlightAware
03:09PM 38.9220 -115.5630 80° East 480 552 39,000  Level FlightAware
03:09PM 38.9250 -115.5390 81° East 480 552 39,000  Level FlightAware
03:10PM 38.9856 -115.1458 81° East 495 570 39,000  Level Salt Lake Center
03:11PM 39.0078 -114.9733 81° East 493 567 39,000  Level Salt Lake Center
03:17PM 39.1333 -113.9740 81° East 500 575 39,000  Level FlightAware ADS-B
03:17PM 39.1456 -113.8726 81° East 499 574 39,000  Level FlightAware ADS-B
03:18PM 39.1597 -113.7556 81° East 501 577 39,000  Level FlightAware ADS-B
03:19PM 39.1775 -113.6060 81° East 503 579 39,000  Level FlightAware ADS-B
03:19PM 39.1883 -113.5136 81° East 502 578 39,000  Level FlightAware ADS-B
03:20PM 39.1909 -113.4915 81° East 501 577 39,000  Level FlightAware ADS-B (KBTF)
03:20PM 39.2025 -113.3923 81° East 502 578 39,000  Level FlightAware ADS-B
03:21PM 39.2169 -113.2682 81° East 501 577 39,000  Level FlightAware ADS-B (KBTF)
03:21PM 39.2271 -113.1798 82° East 502 578 39,000  Level FlightAware ADS-B (KBTF)
03:21PM 39.2307 -113.1476 82° East 502 578 39,000  Level FlightAware ADS-B (KBTF)
03:21PM 39.2315 -113.1410 81° East 502 578 39,000  Level FlightAware ADS-B
03:22PM 39.2413 -113.0546 82° East 502 578 39,000  Level FlightAware ADS-B (KBTF)
03:22PM 39.2426 -113.0440 81° East 503 579 39,000  Level FlightAware ADS-B
03:23PM 39.2520 -112.9599 82° East 502 578 39,000  Level FlightAware ADS-B
03:23PM 39.2527 -112.9540 81° East 502 578 39,000  Level FlightAware ADS-B
03:23PM 39.2628 -112.8640 82° East 503 579 39,000  Level FlightAware ADS-B
03:23PM 39.2622 -112.8691 262° West 503 579 39,000  Level FlightAware ADS-B
03:23PM 39.2639 -112.8541 82° East 503 579 39,000  Level FlightAware ADS-B
03:24PM 39.2726 -112.7750 82° East 503 579 39,000  Level FlightAware ADS-B
03:24PM 39.2745 -112.7581 82° East 502 578 39,000  Level FlightAware ADS-B (KBTF)
03:24PM 39.2842 -112.6700 82° East 502 578 39,000  Level FlightAware ADS-B
03:24PM 39.2844 -112.6682 82° East 502 578 39,000  Level FlightAware ADS-B (KBTF)
03:25PM 39.2941 -112.5800 82° East 502 578 39,000  Level FlightAware ADS-B
03:25PM 39.2982 -112.5507 80° East 502 578 39,000  Level FlightAware ADS-B (KBTF)
03:25PM 39.3077 -112.5030 76° East 501 577 39,000  Level FlightAware ADS-B
03:25PM 39.3100 -112.4943 71° East 501 577 39,000  Level FlightAware ADS-B
03:25PM 39.3235 -112.4490 69° East 499 574 39,000  Level FlightAware ADS-B
03:26PM 39.3450 -112.3880 65° Northeast 498 573 39,000  Level FlightAware ADS-B
03:26PM 39.3459 -112.3851 68° East 498 573 39,000  Level FlightAware ADS-B (KBTF)
03:26PM 39.3774 -112.3000 64° Northeast 497 572 39,000  Level FlightAware ADS-B
03:26PM 39.3864 -112.2758 64° Northeast 493 567 39,000  Level FlightAware ADS-B (KBTF)
03:27PM 39.3951 -112.2523 64° Northeast 493 567 39,000  Level FlightAware ADS-B (KBTF)
03:27PM 39.4086 -112.2160 64° Northeast 496 571 39,000  Level FlightAware ADS-B
03:27PM 39.4263 -112.1683 64° Northeast 497 572 39,000  Level FlightAware ADS-B (KBTF)
03:27PM 39.4384 -112.1350 65° Northeast 496 571 39,000  Level FlightAware ADS-B
03:28PM 39.4564 -112.0865 64° Northeast 496 571 39,000  Level FlightAware ADS-B (KBTF)
03:28PM 39.4684 -112.0540 64° Northeast 497 572 39,000  Level FlightAware ADS-B
03:28PM 39.4862 -112.0051 65° Northeast 497 572 39,000  Level FlightAware ADS-B (KBTF)
03:28PM 39.4982 -111.9720 65° Northeast 496 571 39,000  Level FlightAware ADS-B
03:29PM 39.5155 -111.9247 65° Northeast 497 572 39,000  Level FlightAware ADS-B (KBTF)
03:29PM 39.5277 -111.8910 65° Northeast 497 572 39,000  Level FlightAware ADS-B
03:29PM 39.5455 -111.8419 65° Northeast 497 572 39,000  Level FlightAware ADS-B (KBTF)
03:29PM 39.5573 -111.8090 65° Northeast 497 572 39,000  Level FlightAware ADS-B
03:30PM 39.5751 -111.7601 65° Northeast 497 572 39,000  Level FlightAware ADS-B (KBTF)
03:30PM 39.5872 -111.7270 65° Northeast 497 572 39,000  Level FlightAware ADS-B
03:30PM 39.6047 -111.6781 65° Northeast 497 572 39,000  Level FlightAware ADS-B (KBTF)
03:30PM 39.6172 -111.6430 65° Northeast 497 572 39,000  Level FlightAware ADS-B
03:31PM 39.6348 -111.5943 65° Northeast 497 572 39,000  Level FlightAware ADS-B
03:31PM 39.6466 -111.5610 65° Northeast 497 572 39,000  Level FlightAware ADS-B
03:31PM 39.6662 -111.5069 65° Northeast 497 572 39,000  Level FlightAware ADS-B (KBTF)
03:31PM 39.6757 -111.4800 65° Northeast 497 572 39,000  Level FlightAware ADS-B
03:32PM 39.7015 -111.4081 65° Northeast 497 572 39,000  Level FlightAware ADS-B (KMTJ)
03:32PM 39.7050 -111.3980 66° East 497 572 39,000  Level FlightAware ADS-B
03:32PM 39.7321 -111.3223 65° Northeast 497 572 39,000  Level FlightAware ADS-B (KMTJ)
03:32PM 39.7360 -111.3110 66° East 496 571 39,000  Level FlightAware ADS-B
03:33PM 39.7652 -111.2290 65° Northeast 495 570 39,000  Level FlightAware ADS-B
03:33PM 39.7767 -111.1968 65° Northeast 496 571 39,000  Level FlightAware ADS-B (KMTJ)
03:33PM 39.7946 -111.1460 65° Northeast 496 571 39,000  Level FlightAware ADS-B
03:34PM 39.8119 -111.0974 65° Northeast 496 571 39,000  Level FlightAware ADS-B (KMTJ)
03:34PM 39.8237 -111.0640 65° Northeast 496 571 39,000  Level FlightAware ADS-B
03:34PM 39.8421 -111.0116 65° Northeast 496 571 39,000  Level FlightAware ADS-B (KMTJ)
03:35PM 39.8524 -110.9820 66° East 496 571 39,000  Level FlightAware ADS-B
03:35PM 39.8813 -110.9000 65° Northeast 497 572 39,000  Level FlightAware ADS-B
03:36PM 39.9132 -110.8090 65° Northeast 496 571 39,000  Level FlightAware ADS-B
03:36PM 39.9137 -110.8078 62° Northeast 496 571 39,000  Level FlightAware ADS-B (KMTJ)
03:36PM 39.9430 -110.7240 65° Northeast 496 571 39,000  Level FlightAware ADS-B (KMTJ)
03:37PM 39.9817 -110.6128 66° East 497 572 39,000  Level FlightAware ADS-B (KMTJ)
03:37PM 40.0140 -110.5195 66° East 497 572 39,000  Level FlightAware ADS-B (KMTJ)
03:38PM 40.0458 -110.4276 66° East 496 571 39,000  Level FlightAware ADS-B (KMTJ)
03:38PM 40.0781 -110.3340 66° East 496 571 39,000  Level FlightAware ADS-B (KMTJ)
03:39PM 40.1054 -110.2544 66° East 496 571 39,000  Level FlightAware ADS-B (KMTJ)
03:40PM 40.1385 -110.1558 66° East 496 571 39,000  Level FlightAware ADS-B (KMTJ)
03:40PM 40.1651 -110.0555 71° East 497 572 39,000  Level FlightAware ADS-B (KMTJ)
03:41PM 40.1851 -109.9679 73° East 497 572 39,000  Level FlightAware ADS-B (KMTJ)
03:41PM 40.2044 -109.8806 74° East 498 573 39,000  Level FlightAware ADS-B (KMTJ)
03:42PM 40.2250 -109.7874 74° East 499 574 39,000  Level FlightAware ADS-B (KMTJ)
03:42PM 40.2501 -109.6728 74° East 498 573 39,000  Level FlightAware ADS-B (KMTJ)
03:43PM 40.2694 -109.5849 74° East 498 573 39,000  Level FlightAware ADS-B (KMTJ)
03:44PM 40.2942 -109.4716 74° East 498 573 39,000  Level FlightAware ADS-B (KMTJ)
03:44PM 40.3156 -109.3733 74° East 499 574 39,000  Level FlightAware ADS-B (KMTJ)
03:45PM 40.3363 -109.2785 74° East 498 573 39,000  Level FlightAware ADS-B (KMTJ)
03:45PM 40.3551 -109.1910 74° East 498 573 39,000  Level FlightAware ADS-B (KMTJ)
03:46PM 40.3797 -109.0770 74° East 496 571 39,000  Level FlightAware ADS-B (KMTJ)
03:46PM 40.3980 -108.9915 74° East 496 571 39,000  Level FlightAware ADS-B (KMTJ)
03:47PM 40.4173 -108.9005 74° East 495 570 39,000  Level FlightAware ADS-B (KMTJ)
03:47PM 40.4416 -108.7863 74° East 494 568 39,000  Level FlightAware ADS-B (KMTJ)
03:48PM 40.4592 -108.7031 74° East 493 567 39,000  Level FlightAware ADS-B (KMTJ)
03:49PM 40.4784 -108.6116 75° East 493 567 39,000  Level FlightAware ADS-B (KMTJ)
03:49PM 40.4969 -108.5233 75° East 491 565 39,000  Level FlightAware ADS-B (KMTJ)
03:50PM 40.5183 -108.4204 75° East 492 566 39,000  Level FlightAware ADS-B (KMTJ)
03:50PM 40.5366 -108.3320 75° East 493 567 39,000  Level FlightAware ADS-B (KMTJ)
03:51PM 40.5630 -108.2040 75° East 490 564 39,000  Level FlightAware
03:51PM 40.5791 -108.1255 75° East 491 565 39,000  Level FlightAware ADS-B (KMTJ)
03:52PM 40.5970 -108.0378 75° East 492 566 39,000  Level FlightAware ADS-B (KMTJ)
03:52PM 40.6151 -107.9492 75° East 492 566 39,000  Level FlightAware ADS-B (KMTJ)
03:53PM 40.6337 -107.8572 75° East 491 565 39,000  Level FlightAware ADS-B (KMTJ)
03:53PM 40.6512 -107.7703 75° East 492 566 39,000  Level FlightAware ADS-B (KMTJ)
03:54PM 40.6687 -107.6834 75° East 492 566 39,000  Level FlightAware ADS-B (KMTJ)
03:54PM 40.6871 -107.5914 75° East 492 566 39,000  Level FlightAware ADS-B (KMTJ)
03:55PM 40.7052 -107.5007 75° East 492 566 39,000  Level FlightAware ADS-B (KMTJ)
03:55PM 40.7226 -107.4130 75° East 492 566 39,000  Level FlightAware ADS-B (KMTJ)
03:56PM 40.7400 -107.3251 75° East 492 566 39,000  Level FlightAware ADS-B (KMTJ)
03:57PM 40.7547 -107.2505 75° East 491 565 39,000  Level FlightAware ADS-B (KANK)
03:58PM 40.7914 -107.0622 75° East 492 566 39,000  Level FlightAware ADS-B (KANK)
03:59PM 40.8287 -106.8694 76° East 491 565 39,000  Level FlightAware ADS-B (KANK)
03:59PM 40.8580 -106.7170 76° East 490 564 39,000  Level FlightAware
04:00PM 40.8817 -106.5917 76° East 492 566 39,000 -120 Level FlightAware ADS-B (KANK)
04:01PM 40.8992 -106.4991 76° East 493 567 38,900  Descending FlightAware ADS-B (KANK)
04:01PM 40.9190 -106.3960 76° East 493 567 39,000 60 Climbing FlightAware
04:02PM 40.9400 -106.2850 76° East 496 571 39,000  Level FlightAware
04:03PM 40.9760 -106.0870 76° East 497 572 39,000  Level FlightAware
04:04PM 41.0000 -105.9590 76° East 491 565 39,000  Level FlightAware
04:04PM 41.0210 -105.8440 76° East 495 570 39,000  Level FlightAware
04:05PM 41.0410 -105.7350 76° East 497 572 39,000  Level FlightAware
04:06PM 41.0720 -105.5610 77° East 498 573 39,000  Level FlightAware
04:07PM 41.0960 -105.4270 77° East 500 575 39,000  Level FlightAware
04:07PM 41.1110 -105.3470 76° East 498 573 39,000  Level FlightAware
04:08PM 41.1295 -105.2398 77° East 500 575 39,000  Level FlightAware ADS-B (KANK)
04:08PM 41.1480 -105.1340 77° East 498 573 39,000  Level FlightAware
04:10PM 41.1830 -104.9330 77° East 496 571 39,000  Level FlightAware
04:10PM 41.1980 -104.8450 77° East 494 568 39,000  Level FlightAware
04:11PM 41.2412 -104.6447 74° East 491 565 39,000  Level FlightAware ADS-B (KANK)
04:12PM 41.2780 -104.4870 73° East 489 563 39,000  Level FlightAware
04:13PM 41.3140 -104.3360 72° East 488 562 39,000  Level FlightAware
04:13PM 41.3350 -104.2460 73° East 488 562 39,000  Level FlightAware
04:14PM 41.3560 -104.1530 73° East 489 563 39,000  Level FlightAware
04:15PM 41.3850 -104.0300 73° East 490 564 39,000  Level FlightAware
04:15PM 41.4040 -103.9450 73° East 490 564 39,000  Level FlightAware
04:16PM 41.4310 -103.8300 73° East 491 565 39,000  Level FlightAware
04:17PM 41.4560 -103.7190 73° East 490 564 39,000  Level FlightAware
04:18PM 41.4990 -103.5290 73° East 490 564 39,000  Level FlightAware
04:18PM 41.5290 -103.3970 73° East 491 565 39,000  Level FlightAware
04:19PM 41.5510 -103.2980 73° East 491 565 39,000  Level FlightAware
04:20PM 41.5750 -103.1890 74° East 492 566 39,000  Level FlightAware
04:20PM 41.6020 -103.0660 74° East 491 565 39,000  Level FlightAware
04:21PM 41.6160 -103.0040 73° East 491 565 39,000  Level FlightAware
04:21PM 41.6440 -102.8800 73° East 491 565 39,000  Level FlightAware
04:22PM 41.6640 -102.7910 73° East 491 565 39,000  Level FlightAware
04:23PM 41.6870 -102.6750 75° East 492 566 39,000  Level FlightAware
04:23PM 41.7040 -102.6000 73° East 491 565 39,000  Level FlightAware
04:24PM 41.7300 -102.4790 74° East 490 564 39,000  Level FlightAware
04:25PM 41.7620 -102.3270 74° East 490 564 39,000  Level FlightAware
04:25PM 41.7730 -102.2780 73° East 490 564 39,000  Level FlightAware
04:26PM 41.7990 -102.1540 74° East 490 564 39,000  Level FlightAware
04:26PM 41.8180 -102.0640 74° East 490 564 39,000  Level FlightAware
04:27PM 41.8430 -101.9480 74° East 490 564 39,000  Level FlightAware
04:28PM 41.8620 -101.8580 74° East 490 564 39,000  Level FlightAware
04:28PM 41.8830 -101.7610 74° East 490 564 39,000  Level FlightAware
04:29PM 41.9030 -101.6690 74° East 490 564 39,000  Level FlightAware
04:30PM 41.9330 -101.5270 74° East 490 564 39,000  Level FlightAware
04:30PM 41.9520 -101.4350 74° East 490 564 39,000  Level FlightAware
04:31PM 41.9640 -101.3800 74° East 490 564 39,000  Level FlightAware
04:31PM 41.9830 -101.2900 74° East 490 564 39,000  Level FlightAware
04:32PM 42.0090 -101.1710 74° East 490 564 39,000  Level FlightAware
04:33PM 42.0280 -101.0810 74° East 490 564 39,000  Level FlightAware
04:33PM 42.0470 -100.9910 74° East 490 564 39,000  Level FlightAware
04:34PM 42.0720 -100.8710 74° East 490 564 39,000  Level FlightAware
04:35PM 42.0850 -100.8120 73° East 490 564 39,000  Level FlightAware
04:36PM 42.1603 -100.3608 73° East 494 568 39,000  Level Denver Center
04:41PM 42.3370 -99.4280 73° East 493 567 39,000  Level FlightAware
04:42PM 42.3570 -99.3170 76° East 492 566 39,000  Level FlightAware
04:42PM 42.3730 -99.2310 76° East 492 566 39,000  Level FlightAware
04:43PM 42.4050 -99.0540 76° East 490 564 39,000  Level FlightAware
04:44PM 42.4260 -98.9340 77° East 490 564 39,000  Level FlightAware
04:45PM 42.4620 -98.7320 76° East 489 563 39,000  Level FlightAware
04:45PM 42.4740 -98.6140 82° East 488 562 39,000  Level FlightAware
04:46PM 42.4810 -98.4880 86° East 487 560 39,000  Level FlightAware
04:47PM 42.4870 -98.3570 86° East 486 559 39,000  Level FlightAware
04:47PM 42.4920 -98.2500 86° East 485 558 39,000  Level FlightAware
04:48PM 42.4970 -98.1460 86° East 485 558 39,000  Level FlightAware
04:49PM 42.5030 -98.0070 87° East 486 559 39,000  Level FlightAware
04:49PM 42.5070 -97.9170 87° East 486 559 39,000  Level FlightAware
04:50PM 42.5140 -97.7710 86° East 486 559 39,000  Level FlightAware
04:51PM 42.5180 -97.6701 87° East 487 560 39,000  Level FlightAware ADS-B
04:52PM 42.5199 -97.6273 87° East 487 560 39,000  Level FlightAware ADS-B
04:52PM 42.5300 -97.3817 87° East 487 560 39,000  Level FlightAware ADS-B
04:53PM 42.5340 -97.2690 87° East 486 559 39,000  Level FlightAware
04:53PM 42.5377 -97.1827 87° East 487 560 39,000  Level FlightAware ADS-B
04:54PM 42.5409 -97.0960 87° East 487 560 39,000  Level FlightAware ADS-B
04:55PM 42.5478 -96.9112 87° East 487 560 39,000  Level FlightAware ADS-B
04:57PM 42.5597 -96.5614 87° East 489 563 39,000  Level FlightAware ADS-B
04:58PM 42.5660 -96.3720 87° East 489 563 39,000  Level FlightAware
04:58PM 42.5693 -96.2512 88° East 490 564 39,000  Level FlightAware ADS-B
04:59PM 42.5750 -96.0500 88° East 491 565 39,000  Level FlightAware
05:00PM 42.5780 -95.9550 88° East 492 566 39,000  Level FlightAware
05:01PM 42.5810 -95.8480 88° East 492 566 39,000  Level FlightAware
05:01PM 42.5840 -95.7230 88° East 492 566 39,000  Level FlightAware
05:02PM 42.5866 -95.6158 88° East 493 567 39,000  Level FlightAware ADS-B
05:02PM 42.5890 -95.5050 88° East 493 567 39,000  Level FlightAware
05:03PM 42.5928 -95.3472 88° East 495 570 39,000  Level FlightAware ADS-B
05:04PM 42.5970 -95.1420 88° East 497 572 39,000  Level FlightAware
05:05PM 42.6000 -95.0060 88° East 498 573 39,000  Level FlightAware
05:06PM 42.6020 -94.9060 88° East 499 574 39,000  Level FlightAware
05:06PM 42.6040 -94.7930 89° East 500 575 39,000  Level FlightAware
05:07PM 42.6050 -94.6860 89° East 501 577 39,000  Level FlightAware
05:08PM 42.6070 -94.5550 89° East 503 579 39,000  Level FlightAware
05:08PM 42.6090 -94.4500 88° East 504 580 39,000  Level FlightAware
05:09PM 42.6100 -94.3440 89° East 505 581 39,000  Level FlightAware
05:09PM 42.6120 -94.2490 88° East 505 581 39,000  Level FlightAware
05:10PM 42.6122 -94.1922 90° East 506 582 39,000  Level FlightAware ADS-B
05:11PM 42.6130 -94.0856 89° East 506 582 39,000  Level FlightAware ADS-B
05:12PM 42.6142 -93.9191 89° East 506 582 39,000  Level FlightAware ADS-B
05:13PM 42.6160 -93.5540 89° East 508 585 39,000  Level FlightAware
05:13PM 42.6160 -93.4290 90° East 509 586 39,000  Level FlightAware
05:14PM 42.6170 -93.3200 89° East 509 586 39,000  Level FlightAware
05:15PM 42.6170 -93.1960 90° East 509 586 39,000  Level FlightAware
05:15PM 42.6167 -93.1572 91° East 510 587 39,000  Level FlightAware ADS-B
05:16PM 42.6166 -93.0102 90° East 510 587 39,000  Level FlightAware ADS-B
05:16PM 42.6160 -92.8820 90° East 510 587 39,000  Level FlightAware
05:17PM 42.6161 -92.7839 90° East 511 588 39,000  Level FlightAware ADS-B
05:18PM 42.6151 -92.5658 90° East 517 595 39,000  Level FlightAware ADS-B
05:19PM 42.6143 -92.4330 90° East 518 596 39,000  Level FlightAware ADS-B
05:19PM 42.6134 -92.3048 91° East 518 596 39,000  Level FlightAware ADS-B
05:20PM 42.6128 -92.2263 91° East 519 597 39,000  Level FlightAware ADS-B
05:21PM 42.6112 -92.0497 91° East 519 597 39,000  Level FlightAware ADS-B
05:21PM 42.6098 -91.9116 91° East 517 595 39,000  Level FlightAware ADS-B
05:22PM 42.6082 -91.7827 91° East 515 593 39,000  Level FlightAware ADS-B
05:23PM 42.6066 -91.6545 91° East 514 592 39,000  Level FlightAware ADS-B
05:23PM 42.6048 -91.5195 91° East 513 590 39,000  Level FlightAware ADS-B
05:24PM 42.6030 -91.3963 91° East 513 590 39,000  Level FlightAware ADS-B
05:25PM 42.5998 -91.1979 91° East 512 589 39,000  Level FlightAware ADS-B
05:26PM 42.5975 -91.0704 91° East 512 589 39,000  Level FlightAware ADS-B
05:26PM 42.5953 -90.9533 91° East 512 589 39,000  Level FlightAware ADS-B
05:27PM 42.5926 -90.8207 92° East 512 589 39,000  Level FlightAware ADS-B
05:28PM 42.5901 -90.7010 92° East 513 590 39,000  Level FlightAware ADS-B
05:28PM 42.5860 -90.5370 92° East 514 592 39,000  Level FlightAware
05:30PM 42.5810 -90.3260 92° East 514 592 39,000  Level FlightAware
05:31PM 42.5760 -90.1290 92° East 514 592 39,000  Level FlightAware
05:32PM 42.5710 -89.9290 92° East 512 589 39,000  Level FlightAware
05:32PM 42.5670 -89.7900 92° East 512 589 39,000  Level FlightAware
05:33PM 42.5630 -89.6720 93° East 512 589 39,000  Level FlightAware
05:33PM 42.5600 -89.5770 92° East 512 589 39,000  Level FlightAware
05:34PM 42.5570 -89.4550 92° East 511 588 39,000  Level FlightAware
05:35PM 42.5500 -89.2480 93° East 508 585 39,000  Level FlightAware
05:36PM 42.5430 -89.0630 93° East 505 581 39,000  Level FlightAware
05:37PM 42.5370 -88.8870 93° East 503 579 39,000  Level FlightAware
05:38PM 42.5330 -88.7800 93° East 501 577 39,000  Level FlightAware
05:38PM 42.5290 -88.6760 93° East 501 577 39,000  Level FlightAware
05:39PM 42.5230 -88.5390 93° East 500 575 39,000  Level FlightAware
05:40PM 42.5160 -88.3560 93° East 500 575 39,000  Level FlightAware
05:41PM 42.5070 -88.1490 93° East 502 578 39,000  Level FlightAware
05:42PM 42.5020 -88.0230 93° East 503 579 39,000  Level FlightAware
05:42PM 42.5000 -87.9570 92° East 504 580 39,000  Level FlightAware
05:43PM 42.5000 -87.7560 90° East 505 581 39,000  Level FlightAware
05:44PM 42.5000 -87.6490 90° East 506 582 39,000  Level FlightAware
05:44PM 42.4990 -87.5210 91° East 507 583 39,000  Level FlightAware
05:45PM 42.4990 -87.3980 90° East 507 583 39,000  Level FlightAware
05:46PM 42.4980 -87.2340 90° East 509 586 39,000  Level FlightAware
05:46PM 42.4970 -87.1340 91° East 510 587 39,000  Level FlightAware
05:47PM 42.4950 -86.9530 91° East 510 587 39,000  Level FlightAware
05:48PM 42.4940 -86.8060 90° East 510 587 39,000  Level FlightAware
05:49PM 42.4930 -86.6640 90° East 510 587 39,000  Level FlightAware
05:49PM 42.4910 -86.5460 91° East 510 587 39,000  Level FlightAware
05:50PM 42.4900 -86.4460 91° East 510 587 39,000  Level FlightAware
05:50PM 42.4890 -86.3640 91° East 510 587 39,000  Level FlightAware
05:52PM 42.4850 -86.1430 91° East 510 587 39,000  Level FlightAware
05:52PM 42.4830 -85.9770 91° East 511 588 39,000  Level FlightAware
05:53PM 42.4810 -85.8620 91° East 511 588 39,000  Level FlightAware
05:54PM 42.4770 -85.6820 92° East 512 589 39,000  Level FlightAware
05:54PM 42.4750 -85.5900 92° East 513 590 39,000  Level FlightAware
05:55PM 42.4730 -85.4780 91° East 513 590 39,000  Level FlightAware
05:56PM 42.4690 -85.2870 92° East 514 592 39,000  Level FlightAware
05:57PM 42.4660 -85.1820 92° East 514 592 39,000  Level FlightAware
05:57PM 42.4620 -85.0040 92° East 515 593 39,000  Level FlightAware
05:58PM 42.4590 -84.8890 92° East 515 593 39,000  Level FlightAware
05:59PM 42.4550 -84.7550 92° East 516 594 39,000  Level FlightAware
06:00PM 42.4500 -84.5850 92° East 517 595 39,000  Level FlightAware
06:01PM 42.4450 -84.4060 92° East 516 594 39,000  Level FlightAware
06:01PM 42.4410 -84.2820 92° East 516 594 39,000  Level FlightAware
06:02PM 42.4350 -84.0920 92° East 516 594 39,000  Level FlightAware
06:03PM 42.4320 -84.0150 93° East 516 594 39,000  Level FlightAware
06:03PM 42.4280 -83.8930 93° East 516 594 39,000  Level FlightAware
06:04PM 42.4240 -83.7890 93° East 516 594 39,000  Level FlightAware
06:04PM 42.4190 -83.6920 94° East 516 594 39,000  Level FlightAware
06:05PM 42.4080 -83.5330 95° East 517 595 39,000  Level FlightAware
06:06PM 42.3980 -83.4080 96° East 518 596 39,000  Level FlightAware
06:06PM 42.3900 -83.3010 96° East 519 597 39,000  Level FlightAware
06:07PM 42.3830 -83.1970 95° East 519 597 39,000  Level FlightAware
06:08PM 42.3710 -83.0340 96° East 519 597 39,000  Level FlightAware
06:08PM 42.3620 -82.9150 96° East 520 598 39,000  Level FlightAware
06:09PM 42.3540 -82.8040 96° East 519 597 39,000  Level FlightAware
06:10PM 42.3420 -82.6560 96° East 519 597 39,000  Level FlightAware
06:10PM 42.3290 -82.4890 96° East 519 597 39,000  Level FlightAware
06:11PM 42.3200 -82.3710 96° East 520 598 39,000  Level FlightAware
06:12PM 42.3050 -82.1820 96° East 520 598 39,000  Level FlightAware
06:13PM 42.2920 -82.0320 97° East 520 598 39,000  Level FlightAware
06:14PM 42.2780 -81.8660 96° East 520 598 39,000  Level FlightAware
06:15PM 42.2650 -81.7080 96° East 520 598 39,000  Level FlightAware
06:15PM 42.2540 -81.5840 97° East 520 598 39,000  Level FlightAware
06:16PM 42.2350 -81.3750 97° East 520 598 39,000  Level FlightAware
06:17PM 42.2270 -81.2780 96° East 521 600 39,000  Level FlightAware
06:18PM 42.2110 -81.1090 97° East 522 601 39,000  Level FlightAware
06:18PM 42.1980 -80.9610 97° East 523 602 39,000  Level FlightAware
06:19PM 42.1870 -80.8450 97° East 523 602 39,000  Level FlightAware
06:20PM 42.1700 -80.6670 97° East 523 602 39,000  Level FlightAware
06:21PM 42.1590 -80.5490 97° East 524 603 39,000  Level FlightAware
06:21PM 42.1480 -80.4340 97° East 525 604 39,000  Level FlightAware
06:22PM 42.1380 -80.3320 97° East 525 604 39,000  Level FlightAware
06:22PM 42.1220 -80.1760 98° East 525 604 39,000  Level FlightAware
06:23PM 42.1020 -79.9800 98° East 525 604 39,000  Level FlightAware
06:24PM 42.0930 -79.8860 97° East 526 605 39,000  Level FlightAware
06:24PM 42.0820 -79.7780 98° East 527 606 39,000  Level FlightAware
06:25PM 42.0700 -79.6670 98° East 527 606 39,000  Level FlightAware
06:26PM 42.0570 -79.5390 98° East 527 606 39,000  Level FlightAware
06:26PM 42.0460 -79.4410 99° East 526 605 39,000  Level FlightAware
06:27PM 42.0280 -79.2740 98° East 527 606 39,000  Level FlightAware
06:28PM 42.0130 -79.1380 98° East 527 606 39,000  Level FlightAware
06:29PM 41.9940 -78.9600 98° East 528 608 39,000  Level FlightAware
06:29PM 41.9810 -78.8440 99° East 529 609 39,000  Level FlightAware
06:30PM 41.9690 -78.7440 99° East 531 611 39,000  Level FlightAware
06:30PM 41.9560 -78.6300 99° East 532 612 39,000  Level FlightAware
06:31PM 41.9470 -78.5490 98° East 532 612 39,000  Level FlightAware
06:32PM 41.9250 -78.3610 99° East 533 613 39,000  Level FlightAware
06:32PM 41.9140 -78.2590 98° East 533 613 39,000  Level FlightAware
06:33PM 41.8900 -78.0620 99° East 535 616 39,000  Level FlightAware
06:34PM 41.8740 -77.9230 99° East 536 617 39,000  Level FlightAware
06:35PM 41.8470 -77.7860 105° East 540 621 39,000  Level FlightAware
06:35PM 41.8190 -77.6740 109° East 542 624 39,000  Level FlightAware
06:36PM 41.7740 -77.5060 110° East 542 624 39,000  Level FlightAware
06:37PM 41.7300 -77.3400 110° East 542 624 39,000  Level FlightAware
06:38PM 41.6840 -77.1700 110° East 542 624 39,000  Level FlightAware
06:39PM 41.6540 -77.0590 110° East 541 623 39,000  Level FlightAware
06:39PM 41.6270 -76.9600 110° East 541 623 39,000  Level FlightAware
06:40PM 41.5780 -76.7820 110° East 542 624 39,000  Level FlightAware
06:41PM 41.5320 -76.6130 110° East 542 624 39,000  Level FlightAware
06:42PM 41.4800 -76.4240 110° East 541 623 39,000  Level FlightAware
06:42PM 41.4540 -76.3310 110° East 540 621 39,000 -900 Level FlightAware
06:43PM 41.4180 -76.2030 111° Southeast 542 624 38,000 -1,980 Descending FlightAware
06:44PM 41.3950 -76.1190 110° East 543 625 36,800 -3,000 Descending FlightAware
06:44PM 41.3490 -75.9570 111° Southeast 549 632 34,100 -3,240 Descending FlightAware
06:45PM 41.3240 -75.8680 110° East 550 633 32,500 -3,480 Descending FlightAware
06:46PM 41.2710 -75.6850 111° Southeast 553 636 29,100 -3,540 Descending FlightAware
06:47PM 41.2250 -75.5440 113° Southeast 550 633 26,500 -3,240 Descending FlightAware
06:47PM 41.1730 -75.3910 114° Southeast 535 616 24,000 -2,040 Descending FlightAware
06:48PM 41.1190 -75.2310 114° Southeast 521 600 23,000 -780 Descending FlightAware
06:49PM 41.0930 -75.1530 114° Southeast 495 570 23,000  Level FlightAware
06:49PM 41.0650 -75.0720 115° Southeast 458 527 23,000  Level FlightAware
06:50PM 41.0440 -75.0090 114° Southeast 438 504 23,000  Level FlightAware
06:50PM 41.0190 -74.9360 114° Southeast 434 499 23,000  Level FlightAware
06:51PM 40.9900 -74.8140 107° East 431 496 23,000  Level FlightAware
06:52PM 40.9980 -74.6540 86° East 422 486 23,000 -240 Level FlightAware
06:53PM 41.0060 -74.5700 83° East 421 484 22,700 -1,140 Descending FlightAware
06:54PM 41.0190 -74.4320 83° East 413 475 21,400 -1,440 Descending FlightAware
06:54PM 41.0180 -74.3190 91° East 413 475 20,300 -1,680 Descending FlightAware
06:55PM 40.9831 -74.2589 128° Southeast 397 457 19,300 -1,140 Descending FlightAware ADS-B
06:55PM 40.9192 -74.2175 154° Southeast 373 429 19,000 -300 Descending FlightAware ADS-B
06:56PM 40.8671 -74.1890 158° South 373 429 19,000 -600 Level FlightAware ADS-B
06:57PM 40.7890 -74.1472 158° South 370 426 18,200 -1,140 Descending FlightAware ADS-B
06:57PM 40.7406 -74.1223 159° South 362 417 17,500 -1,380 Descending FlightAware ADS-B
06:58PM 40.6932 -74.0978 159° South 354 407 16,800 -1,380 Descending FlightAware ADS-B
06:58PM 40.6402 -74.0660 156° South 355 409 16,000 -1,620 Descending FlightAware ADS-B
06:59PM 40.5796 -73.9808 133° Southeast 356 410 14,400 -1,920 Descending FlightAware ADS-B
07:00PM 40.5320 -73.9120 132° Southeast 350 403 13,000 -1,920 Descending FlightAware
07:01PM 40.4930 -73.8550 132° Southeast 338 389 11,900 -1,500 Descending FlightAware
07:01PM 40.4540 -73.8250 150° Southeast 300 345 11,300 -1,320 Descending FlightAware
07:02PM 40.3990 -73.8410 192° South 276 318 10,200 -1,500 Descending FlightAware
07:02PM 40.3660 -73.8570 200° South 278 320 9,500 -1,500 Descending FlightAware
07:03PM 40.3290 -73.8740 199° South 275 316 8,800 -1,380 Descending FlightAware
07:03PM 40.3090 -73.8840 201° Southwest 275 316 8,400 -1,200 Descending FlightAware
07:04PM 40.2770 -73.8990 200° South 282 325 7,900 -540 Descending FlightAware
07:04PM 40.2370 -73.8940 175° South 300 345 7,900 -240 Level FlightAware
07:05PM 40.2130 -73.8490 125° Southeast 308 354 7,700 -720 Descending FlightAware
07:05PM 40.2120 -73.8380 97° East 306 352 7,500 -1,200 Descending FlightAware
07:05PM 40.2350 -73.7670 67° East 291 335 6,700 -1,140 Descending FlightAware
07:06PM 40.2520 -73.7280 60° Northeast 287 330 6,200 -1,260 Descending FlightAware
07:06PM 40.2730 -73.6850 57° Northeast 275 316 5,600 -1,200 Descending FlightAware
07:07PM 40.2970 -73.6640 34° Northeast 265 305 5,200 -960 Descending FlightAware
07:07PM 40.3200 -73.6460 31° Northeast 263 303 4,800 -1,260 Descending FlightAware
07:08PM 40.3580 -73.6160 31° Northeast 260 299 4,000 -840 Descending FlightAware
07:08PM 40.3920 -73.5900 30° Northeast 262 302 3,900 -120 Descending FlightAware
07:09PM 40.4190 -73.5690 31° Northeast 263 303 3,900  Level FlightAware
07:09PM 40.4420 -73.5510 31° Northeast 260 299 3,900  Level FlightAware
07:09PM 40.4650 -73.5340 29° Northeast 260 299 3,900  Level FlightAware
07:10PM 40.4940 -73.5110 31° Northeast 261 300 3,900  Level FlightAware
07:10PM 40.5220 -73.4900 30° Northeast 263 303 3,900  Level FlightAware
07:11PM 40.5480 -73.4700 30° Northeast 260 299 3,900 -180 Level FlightAware
07:11PM 40.5620 -73.4620 23° Northeast 255 293 3,800 -660 Descending FlightAware
07:11PM 40.5910 -73.4610 North 251 289 3,500 -900 Descending FlightAware
07:12PM 40.6260 -73.4610 360° North 250 288 3,000 -660 Descending FlightAware
07:12PM 40.6560 -73.4680 350° North 245 282 2,900 -240 Descending FlightAware
07:13PM 40.6850 -73.4910 329° Northwest 243 280 2,800 -720 Descending FlightAware
07:13PM 40.7080 -73.5100 328° Northwest 238 274 2,300 -1,200 Descending FlightAware
07:14PM 40.7280 -73.5260 329° Northwest 232 267 1,900 -480 Descending FlightAware
07:14PM 40.7540 -73.5480 327° Northwest 206 237 1,900  Level FlightAware
07:14PM 40.7690 -73.5610 327° Northwest 191 220 1,900  Level FlightAware
07:15PM 40.7800 -73.5850 301° West 192 221 1,900  Level FlightAware
07:15PM 40.7820 -73.6240 274° West 199 229 1,900  Level FlightAware
07:16PM 40.7710 -73.6500 241° Southwest 191 220 1,900  Level FlightAware
07:16PM 40.7530 -73.6700 220° Southwest 182 209 1,900  Level FlightAware
07:17PM 40.7380 -73.6830 213° Southwest 182 209 1,900 -300 Level FlightAware
07:17PM 40.7230 -73.6940 209° Southwest 171 197 1,700 -720 Descending FlightAware
07:17PM 40.7080 -73.7060 211° Southwest 155 178 1,400 -780 Descending FlightAware
07:18PM 40.6950 -73.7160 210° Southwest 134 154 1,100 -780 Descending FlightAware
07:18PM 40.6820 -73.7260 210° Southwest 129 148 800 -720 Descending FlightAware
07:19PM 40.6680 -73.7370 211° Southwest 126 145 500 -780 Descending FlightAware
07:19PM 40.6530 -73.7490 211° Southwest 127 146 100 -900 Descending FlightAware
07:20PM 40.6370 -73.7620 212° Southwest 78 90 -180 Descending FlightAware